createdAt,value
2023-04-17T00:00:15.419Z,9.38
2023-04-17T00:01:17.022Z,10.10
2023-04-17T00:02:19.014Z,9.45
2023-04-17T00:03:20.741Z,10.15
2023-04-17T00:04:22.877Z,9.38
2023-04-17T00:05:26.669Z,9.20
2023-04-17T00:06:28.855Z,8.35
2023-04-17T00:07:30.505Z,7.63
2023-04-17T00:08:33.898Z,8.57
2023-04-17T00:09:35.654Z,7.07
2023-04-17T00:10:37.279Z,9.20
2023-04-17T00:11:39.042Z,8.50
2023-04-17T00:12:40.680Z,10.40
2023-04-17T00:13:43.948Z,8.93
2023-04-17T00:14:45.562Z,9.90
2023-04-17T00:15:47.161Z,9.23
2023-04-17T00:16:48.995Z,8.75
2023-04-17T00:17:50.778Z,7.85
2023-04-17T00:18:53.058Z,11.27
2023-04-17T00:19:54.680Z,9.23
2023-04-17T00:20:56.822Z,9.80
2023-04-17T00:21:58.666Z,9.25
2023-04-17T00:23:00.363Z,10.60
2023-04-17T00:24:02.064Z,9.80
2023-04-17T00:25:03.939Z,10.55
2023-04-17T00:26:05.620Z,9.88
2023-04-17T00:27:07.550Z,9.23
2023-04-17T00:28:09.452Z,9.63
2023-04-17T00:29:11.210Z,9.63
2023-04-17T00:30:13.234Z,10.52
2023-04-17T00:31:14.832Z,10.80
2023-04-17T00:32:16.408Z,10.02
2023-04-17T00:33:18.077Z,10.05
2023-04-17T00:34:19.661Z,9.45
2023-04-17T00:35:21.642Z,12.48
2023-04-17T00:36:23.354Z,11.25
2023-04-17T00:37:24.945Z,9.43
2023-04-17T00:38:26.723Z,9.63
2023-04-17T00:39:28.343Z,8.40
2023-04-17T00:40:29.988Z,10.20
2023-04-17T00:41:31.625Z,11.23
2023-04-17T00:42:33.227Z,10.23
2023-04-17T00:43:34.902Z,11.35
2023-04-17T00:44:36.539Z,11.23
2023-04-17T00:45:38.209Z,11.48
2023-04-17T00:46:40.803Z,10.43
2023-04-17T00:48:44.652Z,7.68
2023-04-17T00:49:46.550Z,9.40
2023-04-17T00:50:48.149Z,8.77
2023-04-17T00:51:50.460Z,9.57
2023-04-17T00:52:52.514Z,10.50
2023-04-17T00:53:54.629Z,11.45
2023-04-17T00:54:56.466Z,10.68
2023-04-17T00:56:01.289Z,9.13
2023-04-17T00:57:03.065Z,10.82
2023-04-17T00:58:04.725Z,10.70
2023-04-17T00:59:08.188Z,11.68
2023-04-17T01:00:14.473Z,11.30
2023-04-17T01:01:16.448Z,10.70
2023-04-17T01:02:18.652Z,12.30
2023-04-17T01:03:21.835Z,12.50
2023-04-17T01:04:23.866Z,11.65
2023-04-17T01:05:27.357Z,13.02
2023-04-17T01:06:28.963Z,11.57
2023-04-17T01:07:30.757Z,12.07
2023-04-17T01:08:43.952Z,10.35
2023-04-17T01:09:46.094Z,12.18
2023-04-17T01:10:47.670Z,10.30
2023-04-17T01:11:49.359Z,10.82
2023-04-17T01:13:03.380Z,11.77
2023-04-17T01:14:05.944Z,12.48
2023-04-17T01:15:07.836Z,11.95
2023-04-17T01:16:09.386Z,12.63
2023-04-17T01:17:14.168Z,13.27
2023-04-17T01:18:16.481Z,12.52
2023-04-17T01:19:18.597Z,13.57
2023-04-17T01:20:20.465Z,11.80
2023-04-17T01:21:22.635Z,13.95
2023-04-17T01:22:24.231Z,12.73
2023-04-17T01:23:44.169Z,10.77
2023-04-17T01:24:45.847Z,12.23
2023-04-17T01:25:47.492Z,12.80
2023-04-17T01:26:49.057Z,12.77
2023-04-17T01:27:51.063Z,13.52
2023-04-17T01:28:53.129Z,13.35
2023-04-17T01:29:54.637Z,13.93
2023-04-17T01:30:56.228Z,15.10
2023-04-17T01:31:57.816Z,12.90
2023-04-17T01:33:00.017Z,13.05
2023-04-17T01:34:01.700Z,12.38
2023-04-17T01:35:03.863Z,12.18
2023-04-17T01:36:05.920Z,12.98
2023-04-17T01:37:07.728Z,12.10
2023-04-17T01:38:09.395Z,11.85
2023-04-17T01:39:11.337Z,12.25
2023-04-17T01:40:13.187Z,15.20
2023-04-17T01:41:14.798Z,13.27
2023-04-17T01:42:16.444Z,12.68
2023-04-17T01:43:18.822Z,11.68
2023-04-17T01:44:21.001Z,13.48
2023-04-17T01:45:22.529Z,14.60
2023-04-17T01:46:25.479Z,12.10
2023-04-17T01:47:27.118Z,13.90
2023-04-17T01:48:30.218Z,13.02
2023-04-17T01:49:32.045Z,13.55
2023-04-17T01:50:33.623Z,13.40
2023-04-17T01:51:35.160Z,11.93
2023-04-17T01:52:36.778Z,14.25
2023-04-17T01:53:40.583Z,14.15
2023-04-17T01:54:42.160Z,12.40
2023-04-17T01:55:43.725Z,13.75
2023-04-17T01:56:45.283Z,11.15
2023-04-17T01:57:47.569Z,12.10
2023-04-17T01:58:49.181Z,12.48
2023-04-17T01:59:50.841Z,11.57
2023-04-17T02:00:52.405Z,11.98
2023-04-17T02:01:55.433Z,12.60
2023-04-17T02:02:57.202Z,15.10
2023-04-17T02:03:59.205Z,16.38
2023-04-17T02:05:00.893Z,13.02
2023-04-17T02:06:02.537Z,12.82
2023-04-17T02:07:04.122Z,12.48
2023-04-17T02:08:05.798Z,11.45
2023-04-17T02:09:07.372Z,14.25
2023-04-17T02:10:13.612Z,13.95
2023-04-17T02:11:15.457Z,12.70
2023-04-17T02:12:17.420Z,13.48
2023-04-17T02:13:19.088Z,13.68
2023-04-17T02:14:20.951Z,15.32
2023-04-17T02:15:22.596Z,14.05
2023-04-17T02:16:24.368Z,15.32
2023-04-17T02:17:26.062Z,13.02
2023-04-17T02:18:28.303Z,13.60
2023-04-17T02:19:29.863Z,14.52
2023-04-17T02:20:32.147Z,16.17
2023-04-17T02:21:33.778Z,17.25
2023-04-17T02:22:35.358Z,14.65
2023-04-17T02:23:36.892Z,13.50
2023-04-17T02:24:40.882Z,12.90
2023-04-17T02:25:42.495Z,12.73
2023-04-17T02:26:44.060Z,14.38
2023-04-17T02:27:47.488Z,14.70
2023-04-17T02:28:49.030Z,13.85
2023-04-17T02:29:50.634Z,13.00
2023-04-17T02:30:52.976Z,14.15
2023-04-17T02:31:54.596Z,15.70
2023-04-17T02:32:56.614Z,14.75
2023-04-17T02:33:58.398Z,15.43
2023-04-17T02:35:00.290Z,15.85
2023-04-17T02:36:02.042Z,13.35
2023-04-17T02:37:11.133Z,14.45
2023-04-17T02:38:12.749Z,14.63
2023-04-17T02:39:15.541Z,13.90
2023-04-17T02:40:17.561Z,14.73
2023-04-17T02:41:19.182Z,16.88
2023-04-17T02:42:20.965Z,16.25
2023-04-17T02:43:22.528Z,14.50
2023-04-17T02:44:24.390Z,18.45
2023-04-17T02:45:26.001Z,12.90
2023-04-17T02:46:27.614Z,13.80
2023-04-17T02:47:29.741Z,13.80
2023-04-17T02:48:31.929Z,14.98
2023-04-17T02:49:33.678Z,16.75
2023-04-17T02:50:35.378Z,14.48
2023-04-17T02:51:51.103Z,14.02
2023-04-17T02:52:52.796Z,12.32
2023-04-17T02:53:54.489Z,12.93
2023-04-17T02:54:58.697Z,13.23
2023-04-17T02:56:01.622Z,13.00
2023-04-17T02:57:04.410Z,14.70
2023-04-17T02:58:06.123Z,14.07
2023-04-17T02:59:07.843Z,15.25
2023-04-17T03:00:14.010Z,14.20
2023-04-17T03:01:15.832Z,15.20
2023-04-17T03:02:22.969Z,16.77
2023-04-17T03:03:24.858Z,14.73
2023-04-17T03:04:29.823Z,14.23
2023-04-17T03:05:32.095Z,14.20
2023-04-17T03:06:35.362Z,14.07
2023-04-17T03:07:38.196Z,13.32
2023-04-17T03:08:40.136Z,14.15
2023-04-17T03:09:42.781Z,15.43
2023-04-17T03:10:44.451Z,12.20
2023-04-17T03:11:46.158Z,13.75
2023-04-17T03:12:47.731Z,12.98
2023-04-17T03:13:49.344Z,14.68
2023-04-17T03:14:51.367Z,14.65
2023-04-17T03:15:52.995Z,14.57
2023-04-17T03:16:54.726Z,14.75
2023-04-17T03:17:56.603Z,14.07
2023-04-17T03:18:58.252Z,15.45
2023-04-17T03:19:59.859Z,14.25
2023-04-17T03:21:01.480Z,13.02
2023-04-17T03:22:03.577Z,14.70
2023-04-17T03:23:05.435Z,16.00
2023-04-17T03:24:07.183Z,16.27
2023-04-17T03:25:09.604Z,15.32
2023-04-17T03:26:21.956Z,15.55
2023-04-17T03:27:24.835Z,14.55
2023-04-17T03:28:28.355Z,20.00
2023-04-17T03:29:30.627Z,17.73
2023-04-17T03:30:32.928Z,15.93
2023-04-17T03:31:38.496Z,15.50
2023-04-17T03:32:40.185Z,14.65
2023-04-17T03:33:42.358Z,15.10
2023-04-17T03:34:44.134Z,14.30
2023-04-17T03:35:46.605Z,17.58
2023-04-17T03:36:48.774Z,16.73
2023-04-17T03:37:50.611Z,14.02
2023-04-17T03:38:52.227Z,13.43
2023-04-17T03:39:55.650Z,12.45
2023-04-17T03:40:59.093Z,13.93
2023-04-17T03:42:01.118Z,12.82
2023-04-17T03:43:02.986Z,13.98
2023-04-17T03:44:05.987Z,11.82
2023-04-17T03:45:08.587Z,13.07
2023-04-17T03:46:10.268Z,14.20
2023-04-17T03:47:13.204Z,14.68
2023-04-17T03:48:16.081Z,16.17
2023-04-17T03:49:19.676Z,13.82
2023-04-17T03:50:21.333Z,13.40
2023-04-17T03:51:31.552Z,13.40
2023-04-17T03:52:39.969Z,13.48
2023-04-17T03:53:41.614Z,14.30
2023-04-17T03:54:45.736Z,14.48
2023-04-17T03:55:48.234Z,13.40
2023-04-17T03:56:58.401Z,15.48
2023-04-17T03:58:00.376Z,15.98
2023-04-17T03:59:05.082Z,15.77
2023-04-17T04:00:10.909Z,16.05
2023-04-17T04:01:28.408Z,14.65
2023-04-17T04:02:44.036Z,15.32
2023-04-17T04:03:46.032Z,16.30
2023-04-17T04:04:50.386Z,15.35
2023-04-17T04:05:52.285Z,14.70
2023-04-17T04:06:57.487Z,16.75
2023-04-17T04:08:00.827Z,14.38
2023-04-17T04:09:11.254Z,15.82
2023-04-17T04:10:13.161Z,16.33
2023-04-17T04:11:15.649Z,16.08
2023-04-17T04:12:17.874Z,17.52
2023-04-17T04:13:20.592Z,17.00
2023-04-17T04:14:27.771Z,18.67
2023-04-17T04:15:29.441Z,16.85
2023-04-17T04:16:35.244Z,14.52
2023-04-17T04:17:43.564Z,16.13
2023-04-17T04:18:45.391Z,15.27
2023-04-17T04:20:50.329Z,13.82
2023-04-17T04:21:59.133Z,14.98
2023-04-17T04:23:08.833Z,15.60
2023-04-17T04:24:13.337Z,12.90
2023-04-17T04:25:17.313Z,14.85
2023-04-17T04:26:24.693Z,14.43
2023-04-17T04:27:32.986Z,16.10
2023-04-17T04:28:35.520Z,15.52
2023-04-17T04:29:37.813Z,16.42
2023-04-17T04:30:50.476Z,16.60
2023-04-17T04:31:54.200Z,15.20
2023-04-17T04:33:01.204Z,17.55
2023-04-17T04:34:03.000Z,15.60
2023-04-17T04:35:06.628Z,16.60
2023-04-17T04:36:08.380Z,15.55
2023-04-17T04:37:15.374Z,16.48
2023-04-17T04:38:18.779Z,16.05
2023-04-17T04:39:23.268Z,15.80
2023-04-17T04:40:24.923Z,15.90
2023-04-17T04:41:26.781Z,17.77
2023-04-17T04:42:29.382Z,17.60
2023-04-17T04:43:42.174Z,18.70
2023-04-17T04:44:44.573Z,17.70
2023-04-17T04:45:46.457Z,18.83
2023-04-17T04:46:48.122Z,19.60
2023-04-17T04:47:50.343Z,18.70
2023-04-17T04:48:51.983Z,21.33
2023-04-17T04:49:53.792Z,20.00
2023-04-17T04:50:56.750Z,18.08
2023-04-17T04:51:58.478Z,19.92
2023-04-17T04:53:06.020Z,20.13
2023-04-17T04:54:22.046Z,19.73
2023-04-17T04:55:30.553Z,20.85
2023-04-17T04:56:33.109Z,20.55
2023-04-17T04:57:35.011Z,18.75
2023-04-17T04:59:40.695Z,20.13
2023-04-17T05:00:58.918Z,21.63
2023-04-17T05:02:07.300Z,19.40
2023-04-17T05:03:09.272Z,23.13
2023-04-17T05:04:11.268Z,22.17
2023-04-17T05:05:13.575Z,18.85
2023-04-17T05:06:15.239Z,19.83
2023-04-17T05:07:23.441Z,19.27
2023-04-17T05:08:25.205Z,22.58
2023-04-17T05:09:35.648Z,21.30
2023-04-17T05:10:38.097Z,21.98
2023-04-17T05:11:40.268Z,22.48
2023-04-17T05:12:42.460Z,20.42
2023-04-17T05:13:45.900Z,21.45
2023-04-17T05:14:55.309Z,21.15
2023-04-17T05:15:58.554Z,19.15
2023-04-17T05:17:03.075Z,20.30
2023-04-17T05:18:04.738Z,22.25
2023-04-17T05:19:08.979Z,19.55
2023-04-17T05:20:31.015Z,20.83
2023-04-17T05:22:36.473Z,22.27
2023-04-17T05:23:43.333Z,18.23
2023-04-17T05:25:47.411Z,17.23
2023-04-17T05:26:49.412Z,20.02
2023-04-17T05:27:51.079Z,20.90
2023-04-17T05:28:53.094Z,20.92
2023-04-17T05:29:58.619Z,18.92
2023-04-17T05:31:00.560Z,20.25
2023-04-17T05:32:08.099Z,18.17
2023-04-17T05:33:35.775Z,17.85
2023-04-17T05:34:38.308Z,20.33
2023-04-17T05:35:39.923Z,18.35
2023-04-17T05:36:42.379Z,19.85
2023-04-17T05:37:44.019Z,19.50
2023-04-17T05:38:46.239Z,20.00
2023-04-17T05:40:49.842Z,19.35
2023-04-17T05:41:51.505Z,18.85
2023-04-17T05:42:53.242Z,16.98
2023-04-17T05:43:54.875Z,17.38
2023-04-17T05:44:56.564Z,18.08
2023-04-17T05:45:58.288Z,17.38
2023-04-17T05:47:00.228Z,17.48
2023-04-17T05:48:01.971Z,16.25
2023-04-17T05:49:03.663Z,17.20
2023-04-17T05:50:06.640Z,20.33
2023-04-17T05:51:08.284Z,19.63
2023-04-17T05:52:10.164Z,19.23
2023-04-17T05:53:16.622Z,22.45
2023-04-17T05:54:24.075Z,21.77
2023-04-17T05:55:26.853Z,22.38
2023-04-17T05:56:31.477Z,21.45
2023-04-17T05:57:33.138Z,22.77
2023-04-17T05:58:36.185Z,24.83
2023-04-17T05:59:39.951Z,25.33
2023-04-17T06:00:44.130Z,29.67
2023-04-17T06:01:48.635Z,25.25
2023-04-17T06:02:55.161Z,19.20
2023-04-17T06:04:06.688Z,22.75
2023-04-17T06:05:09.474Z,21.55
2023-04-17T06:06:11.427Z,19.40
2023-04-17T06:07:13.132Z,21.50
2023-04-17T06:08:14.797Z,20.77
2023-04-17T06:09:16.480Z,23.35
2023-04-17T06:10:18.568Z,27.67
2023-04-17T06:11:21.092Z,23.98
2023-04-17T06:13:24.590Z,24.92
2023-04-17T06:15:28.966Z,21.25
2023-04-17T06:16:30.878Z,21.90
2023-04-17T06:17:32.551Z,21.90
2023-04-17T06:18:34.209Z,22.92
2023-04-17T06:19:35.938Z,23.10
2023-04-17T06:20:39.874Z,21.88
2023-04-17T06:21:41.816Z,21.05
2023-04-17T06:22:45.016Z,24.35
2023-04-17T06:23:46.662Z,24.63
2023-04-17T06:24:51.874Z,24.02
2023-04-17T06:25:53.599Z,23.88
2023-04-17T06:26:55.230Z,24.40
2023-04-17T06:27:57.111Z,23.52
2023-04-17T06:28:58.875Z,23.73
2023-04-17T06:30:01.954Z,24.88
2023-04-17T06:31:06.396Z,22.42
2023-04-17T06:32:08.885Z,22.17
2023-04-17T06:33:11.591Z,22.25
2023-04-17T06:34:13.905Z,19.83
2023-04-17T06:35:19.593Z,22.60
2023-04-17T06:36:29.122Z,21.92
2023-04-17T06:37:32.832Z,20.13
2023-04-17T06:38:34.601Z,23.92
2023-04-17T06:39:36.795Z,20.05
2023-04-17T06:40:38.682Z,21.63
2023-04-17T06:41:41.693Z,19.08
2023-04-17T06:42:43.357Z,19.33
2023-04-17T06:43:53.550Z,20.13
2023-04-17T06:44:55.263Z,17.67
2023-04-17T06:45:56.998Z,18.02
2023-04-17T06:47:03.412Z,18.77
2023-04-17T06:48:05.365Z,18.45
2023-04-17T06:49:07.063Z,21.08
2023-04-17T06:50:09.484Z,20.38
2023-04-17T06:51:11.088Z,22.08
2023-04-17T06:52:12.740Z,19.05
2023-04-17T06:53:14.417Z,19.83
2023-04-17T06:54:16.048Z,19.48
2023-04-17T06:55:17.697Z,17.42
2023-04-17T06:56:19.578Z,18.90
2023-04-17T06:57:22.226Z,18.13
2023-04-17T06:58:23.836Z,18.63
2023-04-17T06:59:25.603Z,17.88
2023-04-17T07:00:27.406Z,15.85
2023-04-17T07:01:31.387Z,16.10
2023-04-17T07:02:33.287Z,15.48
2023-04-17T07:03:37.704Z,18.33
2023-04-17T07:04:39.432Z,16.30
2023-04-17T07:05:43.956Z,14.13
2023-04-17T07:06:45.566Z,16.85
2023-04-17T07:07:48.236Z,18.70
2023-04-17T07:08:50.611Z,17.17
2023-04-17T07:09:52.259Z,15.95
2023-04-17T07:10:54.628Z,18.13
2023-04-17T07:11:56.997Z,19.05
2023-04-17T07:12:59.510Z,18.10
2023-04-17T07:15:03.004Z,20.15
2023-04-17T07:16:06.327Z,19.63
2023-04-17T07:17:08.117Z,19.25
2023-04-17T07:18:09.764Z,18.48
2023-04-17T07:19:11.567Z,19.60
2023-04-17T07:20:13.334Z,19.80
2023-04-17T07:21:14.919Z,17.73
2023-04-17T07:22:16.599Z,17.60
2023-04-17T07:23:18.353Z,17.65
2023-04-17T07:24:20.047Z,14.45
2023-04-17T07:25:21.754Z,14.73
2023-04-17T07:26:23.461Z,14.57
2023-04-17T07:27:25.254Z,13.05
2023-04-17T07:28:26.897Z,14.68
2023-04-17T07:29:28.596Z,15.73
2023-04-17T07:30:30.955Z,13.38
2023-04-17T07:31:32.676Z,16.58
2023-04-17T07:32:34.446Z,14.52
2023-04-17T07:33:39.569Z,13.95
2023-04-17T07:34:42.107Z,12.15
2023-04-17T07:35:43.874Z,13.15
2023-04-17T07:36:46.584Z,12.30
2023-04-17T07:37:48.240Z,13.55
2023-04-17T07:38:49.918Z,12.95
2023-04-17T07:39:52.805Z,10.00
2023-04-17T07:40:54.512Z,10.20
2023-04-17T07:41:57.009Z,10.75
2023-04-17T07:44:03.280Z,9.45
2023-04-17T07:45:06.083Z,7.70
2023-04-17T07:46:07.727Z,9.52
2023-04-17T07:47:09.366Z,9.27
2023-04-17T07:48:11.317Z,9.52
2023-04-17T07:49:13.323Z,9.48
2023-04-17T07:50:15.458Z,10.68
2023-04-17T07:51:17.371Z,11.82
2023-04-17T07:52:19.056Z,10.20
2023-04-17T07:53:22.275Z,10.57
2023-04-17T07:54:23.993Z,9.77
2023-04-17T07:55:25.907Z,8.80
2023-04-17T07:56:28.256Z,9.32
2023-04-17T07:57:30.066Z,9.32
2023-04-17T07:58:32.009Z,9.00
2023-04-17T07:59:33.744Z,9.48
2023-04-17T08:00:35.316Z,8.07
2023-04-17T08:01:36.962Z,8.27
2023-04-17T08:02:38.767Z,9.65
2023-04-17T08:03:41.953Z,8.15
2023-04-17T08:04:44.968Z,9.80
2023-04-17T08:05:46.824Z,9.75
2023-04-17T08:06:48.707Z,7.78
2023-04-17T08:07:50.335Z,8.35
2023-04-17T08:08:52.150Z,7.50
2023-04-17T08:09:53.719Z,7.63
2023-04-17T08:10:55.582Z,7.55
2023-04-17T08:11:58.181Z,7.38
2023-04-17T08:13:01.264Z,6.93
2023-04-17T08:14:02.928Z,7.68
2023-04-17T08:15:05.042Z,8.93
2023-04-17T08:16:07.505Z,8.35
2023-04-17T08:18:10.827Z,8.15
2023-04-17T08:19:12.670Z,7.47
2023-04-17T08:20:18.414Z,7.93
2023-04-17T08:21:20.080Z,8.02
2023-04-17T08:22:24.153Z,9.15
2023-04-17T08:23:25.939Z,7.65
2023-04-17T08:24:27.586Z,7.75
2023-04-17T08:25:29.234Z,9.70
2023-04-17T08:26:31.507Z,8.25
2023-04-17T08:27:33.228Z,9.05
2023-04-17T08:28:34.901Z,7.57
2023-04-17T08:29:37.745Z,8.00
2023-04-17T08:30:39.327Z,9.63
2023-04-17T08:31:41.301Z,9.10
2023-04-17T08:32:45.491Z,9.13
2023-04-17T08:33:47.251Z,8.68
2023-04-17T08:34:48.856Z,7.25
2023-04-17T08:35:51.460Z,8.55
2023-04-17T08:36:53.092Z,7.80
2023-04-17T08:37:56.762Z,7.25
2023-04-17T08:38:58.392Z,7.75
2023-04-17T08:40:00.065Z,7.65
2023-04-17T08:41:08.706Z,7.30
2023-04-17T08:43:21.395Z,7.28
2023-04-17T08:44:23.009Z,7.82
2023-04-17T08:45:24.808Z,6.97
2023-04-17T08:46:27.291Z,7.22
2023-04-17T08:48:30.952Z,7.47
2023-04-17T08:49:35.448Z,7.13
2023-04-17T08:50:37.236Z,5.70
2023-04-17T08:51:38.924Z,6.90
2023-04-17T08:52:42.740Z,6.20
2023-04-17T08:53:44.370Z,5.78
2023-04-17T08:54:48.925Z,8.88
2023-04-17T08:55:52.259Z,6.80
2023-04-17T08:56:53.891Z,6.13
2023-04-17T08:57:56.562Z,5.90
2023-04-17T08:58:58.241Z,5.80
2023-04-17T09:00:02.513Z,6.38
2023-04-17T09:01:12.525Z,5.95
2023-04-17T09:02:14.229Z,5.38
2023-04-17T09:03:16.792Z,5.90
2023-04-17T09:04:38.378Z,6.85
2023-04-17T09:05:48.568Z,6.47
2023-04-17T09:06:54.262Z,5.72
2023-04-17T09:08:15.699Z,5.15
2023-04-17T09:09:17.693Z,6.63
2023-04-17T09:10:19.342Z,5.82
2023-04-17T09:11:21.173Z,5.72
2023-04-17T09:12:25.338Z,7.05
2023-04-17T09:13:27.283Z,6.60
2023-04-17T09:14:29.849Z,5.40
2023-04-17T09:15:32.691Z,7.20
2023-04-17T09:16:35.216Z,5.63
2023-04-17T09:17:37.853Z,5.68
2023-04-17T09:18:40.976Z,6.70
2023-04-17T09:20:02.170Z,6.00
2023-04-17T09:21:05.009Z,4.95
2023-04-17T09:22:22.974Z,4.60
2023-04-17T09:23:25.157Z,4.57
2023-04-17T09:24:37.654Z,6.00
2023-04-17T09:25:39.323Z,5.88
2023-04-17T09:26:41.078Z,6.13
2023-04-17T09:27:42.770Z,6.13
2023-04-17T09:29:11.726Z,6.82
2023-04-17T09:30:14.302Z,4.85
2023-04-17T09:31:18.986Z,6.28
2023-04-17T09:32:20.723Z,5.80
2023-04-17T09:33:22.424Z,5.70
2023-04-17T09:34:24.062Z,5.05
2023-04-17T09:35:26.089Z,4.88
2023-04-17T09:36:30.670Z,5.10
2023-04-17T09:37:54.542Z,6.43
2023-04-17T09:38:57.016Z,5.10
2023-04-17T09:41:03.980Z,5.63
2023-04-17T09:42:06.399Z,5.68
2023-04-17T09:43:10.399Z,5.68
2023-04-17T09:44:25.602Z,6.03
2023-04-17T09:45:33.253Z,6.43
2023-04-17T09:46:41.256Z,5.28
2023-04-17T09:47:46.532Z,6.10
2023-04-17T09:48:48.260Z,5.65
2023-04-17T09:49:55.684Z,5.63
2023-04-17T09:50:57.723Z,5.40
2023-04-17T09:51:59.692Z,5.18
2023-04-17T09:53:02.215Z,5.20
2023-04-17T09:54:05.607Z,5.07
2023-04-17T09:55:10.423Z,5.07
2023-04-17T09:56:13.582Z,5.60
2023-04-17T09:57:15.864Z,5.35
2023-04-17T09:58:18.130Z,5.85
2023-04-17T09:59:20.034Z,5.38
2023-04-17T10:00:23.627Z,6.25
2023-04-17T10:01:25.580Z,6.22
2023-04-17T10:02:28.281Z,5.03
2023-04-17T10:03:30.522Z,5.28
2023-04-17T10:04:33.369Z,5.57
2023-04-17T10:05:35.319Z,5.18
2023-04-17T10:06:37.155Z,6.75
2023-04-17T10:07:40.209Z,6.00
2023-04-17T10:08:41.966Z,5.68
2023-04-17T10:09:45.681Z,6.53
2023-04-17T10:10:48.674Z,6.03
2023-04-17T10:11:50.657Z,6.78
2023-04-17T10:12:56.151Z,7.07
2023-04-17T10:14:21.961Z,6.90
2023-04-17T10:15:24.356Z,7.72
2023-04-17T10:17:37.385Z,6.82
2023-04-17T10:18:39.569Z,6.00
2023-04-17T10:19:41.225Z,6.28
2023-04-17T10:20:45.022Z,6.35
2023-04-17T10:21:50.762Z,6.47
2023-04-17T10:22:56.730Z,5.93
2023-04-17T10:23:59.432Z,6.55
2023-04-17T10:25:13.084Z,6.53
2023-04-17T10:26:27.934Z,6.93
2023-04-17T10:27:31.040Z,6.78
2023-04-17T10:28:49.488Z,7.28
2023-04-17T10:30:02.165Z,7.00
2023-04-17T10:31:03.810Z,6.82
2023-04-17T10:32:11.242Z,6.50
2023-04-17T10:33:12.981Z,7.03
2023-04-17T10:34:37.101Z,7.43
2023-04-17T10:35:38.990Z,6.38
2023-04-17T10:36:40.749Z,6.35
2023-04-17T10:37:48.563Z,6.85
2023-04-17T10:38:50.176Z,6.68
2023-04-17T10:40:02.317Z,6.63
2023-04-17T10:41:08.902Z,9.25
2023-04-17T10:42:18.188Z,7.75
2023-04-17T10:43:23.266Z,6.80
2023-04-17T10:44:25.110Z,10.05
2023-04-17T10:45:59.564Z,7.10
2023-04-17T10:48:40.802Z,6.75
2023-04-17T10:49:52.214Z,6.95
2023-04-17T10:50:55.651Z,7.93
2023-04-17T10:51:57.308Z,6.88
2023-04-17T10:52:58.941Z,5.75
2023-04-17T10:54:06.318Z,6.53
2023-04-17T10:55:09.517Z,6.82
2023-04-17T10:56:12.260Z,5.65
2023-04-17T10:57:13.809Z,5.50
2023-04-17T10:58:15.686Z,6.00
2023-04-17T10:59:18.870Z,7.32
2023-04-17T11:00:22.684Z,5.63
2023-04-17T11:01:33.936Z,6.18
2023-04-17T11:02:35.899Z,6.22
2023-04-17T11:03:38.297Z,5.78
2023-04-17T11:04:39.886Z,6.45
2023-04-17T11:05:45.901Z,6.70
2023-04-17T11:06:47.702Z,6.40
2023-04-17T11:07:51.446Z,6.00
2023-04-17T11:08:55.674Z,5.47
2023-04-17T11:09:59.360Z,5.57
2023-04-17T11:11:00.988Z,5.15
2023-04-17T11:12:02.682Z,5.72
2023-04-17T11:13:04.394Z,7.00
2023-04-17T11:14:11.638Z,5.47
2023-04-17T11:15:19.038Z,6.50
2023-04-17T11:16:21.122Z,5.80
2023-04-17T11:17:22.816Z,6.25
2023-04-17T11:18:24.418Z,5.80
2023-04-17T11:19:26.242Z,7.20
2023-04-17T11:20:32.398Z,5.78
2023-04-17T11:21:34.108Z,6.35
2023-04-17T11:22:36.393Z,5.55
2023-04-17T11:23:38.889Z,5.63
2023-04-17T11:25:42.655Z,6.10
2023-04-17T11:26:46.592Z,6.05
2023-04-17T11:27:51.453Z,5.93
2023-04-17T11:28:53.218Z,5.75
2023-04-17T11:29:54.814Z,5.55
2023-04-17T11:30:56.558Z,5.80
2023-04-17T11:32:00.188Z,5.45
2023-04-17T11:33:04.393Z,5.50
2023-04-17T11:34:08.233Z,5.00
2023-04-17T11:35:10.972Z,5.15
2023-04-17T11:36:14.771Z,5.05
2023-04-17T11:37:16.414Z,5.72
2023-04-17T11:38:22.394Z,6.47
2023-04-17T11:39:28.744Z,6.40
2023-04-17T11:40:30.684Z,6.20
2023-04-17T11:41:38.945Z,6.50
2023-04-17T11:42:46.631Z,5.85
2023-04-17T11:43:51.328Z,7.30
2023-04-17T11:44:52.862Z,5.97
2023-04-17T11:45:59.429Z,5.88
2023-04-17T11:47:01.913Z,5.10
2023-04-17T11:49:05.851Z,5.18
2023-04-17T11:50:07.549Z,8.38
2023-04-17T11:51:09.261Z,5.05
2023-04-17T11:52:11.044Z,5.25
2023-04-17T11:53:14.781Z,4.95
2023-04-17T11:54:29.394Z,5.07
2023-04-17T11:55:31.616Z,6.18
2023-04-17T11:56:33.196Z,4.90
2023-04-17T11:57:43.994Z,5.22
2023-04-17T11:58:50.385Z,5.70
2023-04-17T11:59:52.006Z,5.18
2023-04-17T12:01:06.880Z,5.60
2023-04-17T12:02:09.350Z,5.13
2023-04-17T12:04:34.955Z,5.55
2023-04-17T12:05:37.033Z,4.50
2023-04-17T12:06:38.655Z,5.22
2023-04-17T12:07:40.359Z,5.85
2023-04-17T12:08:50.398Z,5.10
2023-04-17T12:09:56.949Z,5.13
2023-04-17T12:10:58.795Z,4.55
2023-04-17T12:12:04.577Z,4.82
2023-04-17T12:13:06.342Z,5.28
2023-04-17T12:14:12.272Z,4.80
2023-04-17T12:15:14.154Z,4.85
2023-04-17T12:16:15.922Z,5.50
2023-04-17T12:17:17.620Z,4.30
2023-04-17T12:18:19.277Z,4.95
2023-04-17T12:19:20.946Z,5.00
2023-04-17T12:20:23.461Z,5.90
2023-04-17T12:21:25.910Z,4.93
2023-04-17T12:22:29.551Z,4.07
2023-04-17T12:23:31.192Z,4.80
2023-04-17T12:24:32.818Z,4.47
2023-04-17T12:25:34.774Z,4.75
2023-04-17T12:26:36.671Z,3.50
2023-04-17T12:27:38.747Z,2.92
2023-04-17T12:28:40.625Z,3.53
2023-04-17T12:29:44.317Z,3.47
2023-04-17T12:30:46.620Z,4.15
2023-04-17T12:31:48.298Z,3.20
2023-04-17T12:32:52.140Z,2.90
2023-04-17T12:33:53.820Z,3.45
2023-04-17T12:34:56.136Z,3.30
2023-04-17T12:36:02.432Z,3.38
2023-04-17T12:37:04.085Z,3.08
2023-04-17T12:38:05.773Z,2.50
2023-04-17T12:39:08.012Z,2.97
2023-04-17T12:40:10.728Z,3.03
2023-04-17T12:41:12.398Z,4.47
2023-04-17T12:42:14.004Z,2.58
2023-04-17T12:43:16.044Z,2.85
2023-04-17T12:44:17.711Z,4.60
2023-04-17T12:45:19.764Z,4.75
2023-04-17T12:46:21.693Z,3.85
2023-04-17T12:47:23.561Z,3.65
2023-04-17T12:48:25.320Z,3.40
2023-04-17T12:49:26.971Z,4.70
2023-04-17T12:50:28.677Z,3.63
2023-04-17T12:51:31.204Z,3.60
2023-04-17T12:52:32.918Z,4.40
2023-04-17T12:53:34.573Z,3.47
2023-04-17T12:54:36.502Z,3.55
2023-04-17T12:55:38.998Z,3.97
2023-04-17T12:57:42.212Z,2.97
2023-04-17T12:58:44.007Z,3.58
2023-04-17T12:59:45.695Z,4.38
2023-04-17T13:00:47.794Z,2.97
2023-04-17T13:01:49.553Z,4.85
2023-04-17T13:02:51.342Z,3.65
2023-04-17T13:03:53.251Z,3.33
2023-04-17T13:04:56.298Z,3.70
2023-04-17T13:05:58.062Z,3.42
2023-04-17T13:06:59.952Z,3.50
2023-04-17T13:08:01.730Z,3.70
2023-04-17T13:09:04.674Z,3.75
2023-04-17T13:10:07.269Z,3.78
2023-04-17T13:11:09.033Z,4.35
2023-04-17T13:12:11.336Z,4.95
2023-04-17T13:13:12.978Z,3.53
2023-04-17T13:14:15.385Z,3.72
2023-04-17T13:16:19.066Z,4.45
2023-04-17T13:17:21.586Z,3.97
2023-04-17T13:19:25.258Z,4.45
2023-04-17T13:20:26.947Z,4.18
2023-04-17T13:21:28.590Z,4.50
2023-04-17T13:22:30.251Z,4.70
2023-04-17T13:23:31.843Z,4.35
2023-04-17T13:24:34.933Z,4.03
2023-04-17T13:25:37.239Z,4.45
2023-04-17T13:26:39.306Z,4.47
2023-04-17T13:27:41.223Z,4.25
2023-04-17T13:28:42.819Z,4.47
2023-04-17T13:29:44.732Z,3.85
2023-04-17T13:30:46.400Z,3.65
2023-04-17T13:31:48.144Z,4.20
2023-04-17T13:32:49.979Z,4.68
2023-04-17T13:33:51.720Z,3.65
2023-04-17T13:34:53.871Z,3.42
2023-04-17T13:35:55.590Z,3.55
2023-04-17T13:36:57.500Z,3.88
2023-04-17T13:38:02.233Z,3.28
2023-04-17T13:39:05.494Z,3.83
2023-04-17T13:40:10.058Z,3.95
2023-04-17T13:41:11.946Z,3.70
2023-04-17T13:42:15.736Z,3.60
2023-04-17T13:43:17.417Z,3.72
2023-04-17T13:44:19.288Z,3.45
2023-04-17T13:45:21.074Z,3.70
2023-04-17T13:46:22.752Z,2.92
2023-04-17T13:47:24.390Z,3.38
2023-04-17T13:48:26.103Z,2.85
2023-04-17T13:49:27.741Z,3.25
2023-04-17T13:50:29.439Z,3.85
2023-04-17T13:51:31.805Z,2.80
2023-04-17T13:52:33.511Z,3.08
2023-04-17T13:53:35.175Z,3.00
2023-04-17T13:54:36.850Z,3.28
2023-04-17T13:55:38.582Z,2.53
2023-04-17T13:56:40.348Z,3.42
2023-04-17T13:57:41.958Z,2.92
2023-04-17T13:58:44.576Z,3.63
2023-04-17T13:59:46.414Z,2.85
2023-04-17T14:00:48.263Z,3.20
2023-04-17T14:01:50.050Z,3.15
2023-04-17T14:02:51.896Z,3.38
2023-04-17T14:03:53.679Z,2.78
2023-04-17T14:04:55.771Z,3.72
2023-04-17T14:05:57.612Z,3.50
2023-04-17T14:06:59.323Z,3.50
2023-04-17T14:08:01.256Z,4.05
2023-04-17T14:09:03.371Z,3.80
2023-04-17T14:10:05.548Z,4.40
2023-04-17T14:11:07.154Z,4.28
2023-04-17T14:12:08.852Z,4.00
2023-04-17T14:13:10.492Z,3.03